createdAt,value
2023-05-09T00:01:20.620Z,18.80
2023-05-09T00:03:47.519Z,21.10
2023-05-09T00:06:15.326Z,18.47
2023-05-09T00:08:41.910Z,18.33
2023-05-09T00:11:08.695Z,20.97
2023-05-09T00:13:35.754Z,17.60
2023-05-09T00:16:03.466Z,21.00
2023-05-09T00:18:31.173Z,20.87
2023-05-09T00:20:57.955Z,19.00
2023-05-09T00:23:24.628Z,18.67
2023-05-09T00:25:51.393Z,17.40
2023-05-09T00:28:18.061Z,16.97
2023-05-09T00:30:44.858Z,19.37
2023-05-09T00:33:11.633Z,19.60
2023-05-09T00:35:38.226Z,18.70
2023-05-09T00:38:04.894Z,17.70
2023-05-09T00:40:31.747Z,19.97
2023-05-09T00:42:59.507Z,20.60
2023-05-09T00:45:26.249Z,20.83
2023-05-09T00:47:53.033Z,20.77
2023-05-09T00:50:19.820Z,20.00
2023-05-09T00:52:46.782Z,25.10
2023-05-09T00:55:13.901Z,26.77
2023-05-09T00:57:40.796Z,19.43
2023-05-09T01:00:12.850Z,22.30
2023-05-09T01:02:44.840Z,23.83
2023-05-09T01:05:12.238Z,24.47
2023-05-09T01:07:52.633Z,26.10
2023-05-09T01:10:46.605Z,24.10
2023-05-09T01:13:32.125Z,22.97
2023-05-09T01:16:10.558Z,22.10
2023-05-09T01:18:51.541Z,22.20
2023-05-09T01:21:25.384Z,22.13
2023-05-09T01:24:26.339Z,21.80
2023-05-09T01:27:19.109Z,24.00
2023-05-09T01:29:55.039Z,20.60
2023-05-09T01:32:25.178Z,22.60
2023-05-09T01:35:04.050Z,21.90
2023-05-09T01:37:38.772Z,22.90
2023-05-09T01:40:13.026Z,23.93
2023-05-09T01:42:54.758Z,21.53
2023-05-09T01:45:23.563Z,27.63
2023-05-09T01:47:50.686Z,23.13
2023-05-09T01:50:18.865Z,22.60
2023-05-09T01:52:49.110Z,26.93
2023-05-09T01:55:17.472Z,23.87
2023-05-09T01:57:45.311Z,20.40
2023-05-09T02:00:14.200Z,20.33
2023-05-09T02:02:41.832Z,23.13
2023-05-09T02:05:12.446Z,22.10
2023-05-09T02:07:41.637Z,22.37
2023-05-09T02:10:09.600Z,21.90
2023-05-09T02:12:36.217Z,20.33
2023-05-09T02:15:03.121Z,27.10
2023-05-09T02:17:30.830Z,31.03
2023-05-09T02:19:57.569Z,23.40
2023-05-09T02:22:24.420Z,20.80
2023-05-09T02:24:51.101Z,22.13
2023-05-09T02:27:18.764Z,22.90
2023-05-09T02:29:51.825Z,24.20
2023-05-09T02:32:25.509Z,22.93
2023-05-09T02:34:54.040Z,22.33
2023-05-09T02:37:27.622Z,27.57
2023-05-09T02:39:55.234Z,25.27
2023-05-09T02:42:25.254Z,20.03
2023-05-09T02:44:53.604Z,20.80
2023-05-09T02:47:20.643Z,21.93
2023-05-09T02:49:47.855Z,19.70
2023-05-09T02:52:14.789Z,22.47
2023-05-09T02:54:41.421Z,21.83
2023-05-09T02:57:08.015Z,21.40
2023-05-09T02:59:34.687Z,21.10
2023-05-09T03:02:01.599Z,21.63
2023-05-09T03:04:28.236Z,20.57
2023-05-09T03:06:55.081Z,28.80
2023-05-09T03:09:21.667Z,23.53
2023-05-09T03:11:48.282Z,23.40
2023-05-09T03:14:15.333Z,20.00
2023-05-09T03:16:41.964Z,25.30
2023-05-09T03:19:08.661Z,22.00
2023-05-09T03:21:35.373Z,20.90
2023-05-09T03:24:02.012Z,23.47
2023-05-09T03:26:28.622Z,24.53
2023-05-09T03:28:55.362Z,25.80
2023-05-09T03:31:22.125Z,23.20
2023-05-09T03:33:48.755Z,20.93
2023-05-09T03:36:15.482Z,21.57
2023-05-09T03:38:42.140Z,21.23
2023-05-09T03:41:22.869Z,21.47
2023-05-09T03:43:49.455Z,25.27
2023-05-09T03:46:16.055Z,20.17
2023-05-09T03:48:42.770Z,18.60
2023-05-09T03:51:09.400Z,35.10
2023-05-09T03:53:36.126Z,25.27
2023-05-09T03:56:02.717Z,23.27
2023-05-09T03:58:29.308Z,22.63
2023-05-09T04:00:56.348Z,22.00
2023-05-09T04:03:23.093Z,22.40
2023-05-09T04:05:49.884Z,23.00
2023-05-09T04:08:16.606Z,20.20
2023-05-09T04:10:43.217Z,23.20
2023-05-09T04:13:09.832Z,23.30
2023-05-09T04:15:36.482Z,24.10
2023-05-09T04:18:03.372Z,21.70
2023-05-09T04:20:31.168Z,22.73
2023-05-09T04:22:58.917Z,22.40
2023-05-09T04:25:26.311Z,24.30
2023-05-09T04:27:53.061Z,22.83
2023-05-09T04:30:20.857Z,26.97
2023-05-09T04:32:48.873Z,20.50
2023-05-09T04:35:16.890Z,21.90
2023-05-09T04:37:45.607Z,24.00
2023-05-09T04:40:13.230Z,23.73
2023-05-09T04:42:40.468Z,23.20
2023-05-09T04:45:07.596Z,21.60
2023-05-09T04:47:34.208Z,23.33
2023-05-09T04:50:00.942Z,23.47
2023-05-09T04:52:27.554Z,22.97
2023-05-09T04:54:54.464Z,28.10
2023-05-09T04:57:21.835Z,21.73
2023-05-09T04:59:48.404Z,28.03
2023-05-09T05:02:14.970Z,30.60
2023-05-09T05:04:41.788Z,25.40
2023-05-09T05:07:08.394Z,23.60
2023-05-09T05:09:35.005Z,24.87
2023-05-09T05:12:03.231Z,25.10
2023-05-09T05:14:31.206Z,24.47
2023-05-09T05:16:57.793Z,25.13
2023-05-09T05:19:24.415Z,26.83
2023-05-09T05:21:51.010Z,30.73
2023-05-09T05:24:17.600Z,36.90
2023-05-09T05:26:44.297Z,29.83
2023-05-09T05:29:11.075Z,29.80
2023-05-09T05:31:37.762Z,34.10
2023-05-09T05:34:04.431Z,39.03
2023-05-09T05:36:32.084Z,32.97
2023-05-09T05:38:58.734Z,35.00
2023-05-09T05:41:26.296Z,33.77
2023-05-09T05:43:54.220Z,32.13
2023-05-09T05:46:21.420Z,36.07
2023-05-09T05:48:48.140Z,36.53
2023-05-09T05:51:14.788Z,35.30
2023-05-09T05:53:41.389Z,41.53
2023-05-09T05:56:08.141Z,34.93
2023-05-09T05:58:34.796Z,34.73
2023-05-09T06:01:02.428Z,33.20
2023-05-09T06:03:29.098Z,33.33
2023-05-09T06:05:56.439Z,34.30
2023-05-09T06:08:23.092Z,35.77
2023-05-09T06:10:49.724Z,37.40
2023-05-09T06:13:16.423Z,38.27
2023-05-09T06:15:43.110Z,34.83
2023-05-09T06:18:09.823Z,34.50
2023-05-09T06:20:36.410Z,38.17
2023-05-09T06:23:03.026Z,36.10
2023-05-09T06:25:29.615Z,35.67
2023-05-09T06:27:56.204Z,35.10
2023-05-09T06:30:26.816Z,39.20
2023-05-09T06:32:54.760Z,32.70
2023-05-09T06:35:21.734Z,34.97
2023-05-09T06:37:49.124Z,36.00
2023-05-09T06:40:16.767Z,33.53
2023-05-09T06:42:43.480Z,32.40
2023-05-09T06:45:10.695Z,32.17
2023-05-09T06:47:37.390Z,34.57
2023-05-09T06:50:04.206Z,35.53
2023-05-09T06:52:30.803Z,35.13
2023-05-09T06:54:57.391Z,32.90
2023-05-09T06:57:24.090Z,35.43
2023-05-09T06:59:50.754Z,35.50
2023-05-09T07:02:17.388Z,35.27
2023-05-09T07:04:44.099Z,33.47
2023-05-09T07:07:10.801Z,34.33
2023-05-09T07:09:37.536Z,35.03
2023-05-09T07:12:04.448Z,34.87
2023-05-09T07:14:31.056Z,36.60
2023-05-09T07:17:05.451Z,33.30
2023-05-09T07:19:41.233Z,43.67
2023-05-09T07:22:08.001Z,36.40
2023-05-09T07:24:34.638Z,35.97
2023-05-09T07:27:03.733Z,38.67
2023-05-09T07:29:30.394Z,34.47
2023-05-09T07:31:57.323Z,34.33
2023-05-09T07:34:25.331Z,35.73
2023-05-09T07:36:52.040Z,38.03
2023-05-09T07:39:18.664Z,35.47
2023-05-09T07:41:46.417Z,38.60
2023-05-09T07:44:14.286Z,33.77
2023-05-09T07:46:42.049Z,30.50
2023-05-09T07:49:08.741Z,31.50
2023-05-09T07:51:35.588Z,32.70
2023-05-09T07:54:02.311Z,25.67
2023-05-09T07:56:29.020Z,27.30
2023-05-09T07:58:55.939Z,26.37
2023-05-09T08:01:22.602Z,25.10
2023-05-09T08:03:49.307Z,30.27
2023-05-09T08:06:16.100Z,24.37
2023-05-09T08:08:42.807Z,25.80
2023-05-09T08:11:09.491Z,25.07
2023-05-09T08:13:36.256Z,23.90
2023-05-09T08:16:04.370Z,24.30
2023-05-09T08:18:31.065Z,24.30
2023-05-09T08:20:59.492Z,23.77
2023-05-09T08:23:26.689Z,21.90
2023-05-09T08:25:54.560Z,20.83
2023-05-09T08:28:24.366Z,25.37
2023-05-09T08:30:52.466Z,21.87
2023-05-09T08:33:19.150Z,18.63
2023-05-09T08:35:51.755Z,20.57
2023-05-09T08:38:18.701Z,18.53
2023-05-09T08:40:45.440Z,23.20
2023-05-09T08:43:12.804Z,22.27
2023-05-09T08:45:51.353Z,22.37
2023-05-09T08:48:18.579Z,26.33
2023-05-09T08:50:45.537Z,24.37
2023-05-09T08:53:13.369Z,19.10
2023-05-09T08:55:40.212Z,18.13
2023-05-09T08:58:08.045Z,23.27
2023-05-09T09:00:36.511Z,21.23
2023-05-09T09:03:04.100Z,21.53
2023-05-09T09:05:41.318Z,24.10
2023-05-09T09:08:10.214Z,22.83
2023-05-09T09:10:47.079Z,22.40
2023-05-09T09:13:15.254Z,20.70
2023-05-09T09:15:45.042Z,21.83
2023-05-09T09:18:39.463Z,22.70
2023-05-09T09:21:09.314Z,21.87
2023-05-09T09:23:38.966Z,19.67
2023-05-09T09:26:05.616Z,23.70
2023-05-09T09:28:32.752Z,22.73
2023-05-09T09:30:59.383Z,20.57
2023-05-09T09:33:28.477Z,21.93
2023-05-09T09:35:56.755Z,21.90
2023-05-09T09:38:24.630Z,22.00
2023-05-09T09:40:58.572Z,22.80
2023-05-09T09:43:31.850Z,21.30
2023-05-09T09:46:05.406Z,22.83
2023-05-09T09:48:34.610Z,23.20
2023-05-09T09:51:09.979Z,21.07
2023-05-09T09:53:43.417Z,24.17
2023-05-09T09:56:10.559Z,20.23
2023-05-09T09:58:37.357Z,22.50
2023-05-09T10:01:14.156Z,21.73
2023-05-09T10:03:43.043Z,23.83
2023-05-09T10:06:11.670Z,22.50
2023-05-09T10:08:38.999Z,19.87
2023-05-09T10:11:05.779Z,24.03
2023-05-09T10:13:36.307Z,20.37
2023-05-09T10:16:04.129Z,20.80
2023-05-09T10:18:31.832Z,21.17
2023-05-09T10:21:03.873Z,22.30
2023-05-09T10:23:32.645Z,24.20
2023-05-09T10:26:11.800Z,20.53
2023-05-09T10:28:41.898Z,23.27
2023-05-09T10:31:27.597Z,22.70
2023-05-09T10:33:58.809Z,23.03
2023-05-09T10:36:25.892Z,21.90
2023-05-09T10:38:54.912Z,22.10
2023-05-09T10:41:22.549Z,24.77
2023-05-09T10:43:49.471Z,21.00
2023-05-09T10:46:17.486Z,19.77
2023-05-09T10:48:44.824Z,19.63
2023-05-09T10:51:12.685Z,19.43
2023-05-09T10:53:47.696Z,17.87
2023-05-09T10:56:30.575Z,17.10
2023-05-09T10:58:57.885Z,17.50
2023-05-09T11:01:45.024Z,17.80
2023-05-09T11:04:14.567Z,33.90
2023-05-09T11:06:48.906Z,19.07
2023-05-09T11:09:37.743Z,17.50
2023-05-09T11:12:08.393Z,20.83
2023-05-09T11:14:44.910Z,17.63
2023-05-09T11:17:13.349Z,15.73
2023-05-09T11:19:45.959Z,16.97
2023-05-09T11:22:17.109Z,14.80
2023-05-09T11:24:48.552Z,15.57
2023-05-09T11:27:26.602Z,18.80
2023-05-09T11:29:58.013Z,18.10
2023-05-09T11:32:31.476Z,20.20
2023-05-09T11:35:10.261Z,17.50
2023-05-09T11:37:47.115Z,15.57
2023-05-09T11:40:15.672Z,16.40
2023-05-09T11:42:44.844Z,17.83
2023-05-09T11:45:13.257Z,17.17
2023-05-09T11:47:41.036Z,16.57
2023-05-09T11:50:13.066Z,17.03
2023-05-09T11:52:41.007Z,18.83
2023-05-09T11:55:11.546Z,17.57
2023-05-09T11:57:46.430Z,19.17
2023-05-09T12:00:15.273Z,20.67
2023-05-09T12:02:45.450Z,19.37
2023-05-09T12:05:15.276Z,23.97
2023-05-09T12:07:42.365Z,25.57
2023-05-09T12:10:14.471Z,20.23
2023-05-09T12:12:49.951Z,23.50
2023-05-09T12:15:17.556Z,21.23
2023-05-09T12:17:46.796Z,24.17
2023-05-09T12:20:14.417Z,20.07
2023-05-09T12:22:43.616Z,18.27
2023-05-09T12:25:11.730Z,17.67
2023-05-09T12:27:40.697Z,22.00
2023-05-09T12:30:10.082Z,18.33
2023-05-09T12:32:39.407Z,20.50
2023-05-09T12:35:08.561Z,17.60
2023-05-09T12:37:35.291Z,21.10
2023-05-09T12:40:08.543Z,21.43
2023-05-09T12:42:36.008Z,18.13
2023-05-09T12:45:04.327Z,19.50
2023-05-09T12:47:32.059Z,20.57
2023-05-09T12:50:03.483Z,19.30
2023-05-09T12:53:01.345Z,20.10
2023-05-09T12:55:29.395Z,22.10
2023-05-09T12:58:01.321Z,21.37
2023-05-09T13:00:28.150Z,20.30
2023-05-09T13:02:55.002Z,20.87
2023-05-09T13:05:22.984Z,23.07
2023-05-09T13:07:52.245Z,20.17
2023-05-09T13:10:30.693Z,21.10
2023-05-09T13:12:57.431Z,20.70
2023-05-09T13:15:26.603Z,21.90
2023-05-09T13:17:54.366Z,19.83
2023-05-09T13:20:21.169Z,20.50
2023-05-09T13:22:47.779Z,20.63
2023-05-09T13:25:15.965Z,21.00
2023-05-09T13:27:42.560Z,21.60
2023-05-09T13:30:09.457Z,23.80
2023-05-09T13:32:38.925Z,21.20
2023-05-09T13:35:07.945Z,23.83
2023-05-09T13:37:35.244Z,23.67
2023-05-09T13:40:02.568Z,23.50
2023-05-09T13:42:29.169Z,25.60
2023-05-09T13:44:55.761Z,21.67
2023-05-09T13:47:22.479Z,22.93
2023-05-09T13:49:49.127Z,21.83
2023-05-09T13:52:16.360Z,22.47
2023-05-09T13:54:43.063Z,21.50
2023-05-09T13:57:09.801Z,22.47
2023-05-09T13:59:36.809Z,24.63
2023-05-09T14:02:03.719Z,23.33
2023-05-09T14:04:31.948Z,23.43
2023-05-09T14:06:59.804Z,23.40
2023-05-09T14:09:28.276Z,26.03
2023-05-09T14:11:55.508Z,22.90
2023-05-09T14:14:23.803Z,21.70
2023-05-09T14:16:51.957Z,19.57
2023-05-09T14:19:18.700Z,20.67
2023-05-09T14:21:48.703Z,24.83
2023-05-09T14:24:16.495Z,23.23
2023-05-09T14:26:43.645Z,25.00
2023-05-09T14:29:10.555Z,22.93
2023-05-09T14:31:37.508Z,24.13
2023-05-09T14:34:05.290Z,28.83
2023-05-09T14:36:32.418Z,22.97
2023-05-09T14:38:58.995Z,26.50
2023-05-09T14:41:25.899Z,24.20
2023-05-09T14:43:52.519Z,24.17
2023-05-09T14:46:19.394Z,21.37
2023-05-09T14:48:45.988Z,18.37
2023-05-09T14:51:12.792Z,22.17
2023-05-09T14:53:41.581Z,18.87
2023-05-09T14:56:09.421Z,21.47
2023-05-09T14:58:36.180Z,18.60
2023-05-09T15:01:04.271Z,18.00
2023-05-09T15:03:31.051Z,16.40
2023-05-09T15:05:58.692Z,17.13
2023-05-09T15:08:25.860Z,18.83
2023-05-09T15:10:52.659Z,20.83
2023-05-09T15:13:19.354Z,17.80
2023-05-09T15:15:46.090Z,17.53
2023-05-09T15:18:15.419Z,20.43
2023-05-09T15:20:42.592Z,20.00
2023-05-09T15:23:09.268Z,19.10
2023-05-09T15:25:35.939Z,19.40
2023-05-09T15:28:02.989Z,21.07
2023-05-09T15:30:29.627Z,18.70
2023-05-09T15:32:56.246Z,19.57
2023-05-09T15:35:22.941Z,21.03
2023-05-09T15:37:49.492Z,21.40
2023-05-09T15:40:16.574Z,21.60
2023-05-09T15:42:43.496Z,23.80
2023-05-09T15:45:10.237Z,24.80
2023-05-09T15:47:36.946Z,24.40
2023-05-09T15:50:03.869Z,23.17
2023-05-09T15:52:30.618Z,26.37
2023-05-09T15:54:57.417Z,22.93
2023-05-09T15:57:24.843Z,23.00
2023-05-09T15:59:54.365Z,22.80
2023-05-09T16:02:22.098Z,22.80
2023-05-09T16:04:48.754Z,21.70
2023-05-09T16:07:15.356Z,23.30
2023-05-09T16:09:43.409Z,20.90
2023-05-09T16:12:10.152Z,18.03
2023-05-09T16:14:36.861Z,22.60
2023-05-09T16:17:03.605Z,13.90
2023-05-09T16:19:30.498Z,20.87
2023-05-09T16:21:57.331Z,10.97
2023-05-09T16:24:23.990Z,12.47
2023-05-09T16:26:50.649Z,11.37
2023-05-09T16:29:17.240Z,12.67
2023-05-09T16:31:44.902Z,13.83
2023-05-09T16:34:11.967Z,15.27
2023-05-09T16:36:39.373Z,12.90
2023-05-09T16:39:05.989Z,13.70
2023-05-09T16:41:32.611Z,14.60
2023-05-09T16:43:59.178Z,15.67
2023-05-09T16:46:25.892Z,11.67
2023-05-09T16:48:52.939Z,12.03
2023-05-09T16:51:19.509Z,13.47
2023-05-09T16:53:46.136Z,15.47
2023-05-09T16:56:12.730Z,22.30
2023-05-09T16:58:39.512Z,12.63
2023-05-09T17:01:06.485Z,14.97
2023-05-09T17:03:33.250Z,13.63
2023-05-09T17:05:59.945Z,23.20
2023-05-09T17:08:26.607Z,34.80
2023-05-09T17:10:53.278Z,22.93
2023-05-09T17:13:20.004Z,13.90
2023-05-09T17:15:46.706Z,13.23
2023-05-09T17:18:15.312Z,14.43
2023-05-09T17:20:46.358Z,18.13
2023-05-09T17:23:13.107Z,12.73
2023-05-09T17:25:39.713Z,12.17
2023-05-09T17:28:07.353Z,19.30
2023-05-09T17:30:34.043Z,16.10
2023-05-09T17:33:01.407Z,13.30
2023-05-09T17:35:28.237Z,14.20
2023-05-09T17:37:54.867Z,14.97
2023-05-09T17:40:21.571Z,13.77
2023-05-09T17:42:48.474Z,18.10
2023-05-09T17:45:15.308Z,17.00
2023-05-09T17:47:42.067Z,11.90
2023-05-09T17:50:10.442Z,15.10
2023-05-09T17:52:37.223Z,16.43
2023-05-09T17:55:04.089Z,15.53
2023-05-09T17:57:30.901Z,14.53
2023-05-09T17:59:58.231Z,18.07
2023-05-09T18:02:25.127Z,13.40
2023-05-09T18:04:52.208Z,11.30
2023-05-09T18:07:18.909Z,13.07
2023-05-09T18:09:47.654Z,13.23
2023-05-09T18:12:14.253Z,13.33
2023-05-09T18:14:41.024Z,15.40
2023-05-09T18:17:08.757Z,18.50
2023-05-09T18:19:36.983Z,15.33
2023-05-09T18:22:03.709Z,15.17
2023-05-09T18:24:30.367Z,14.23
2023-05-09T18:26:57.176Z,19.03
2023-05-09T18:29:24.242Z,16.40
2023-05-09T18:31:52.090Z,14.57
2023-05-09T18:34:18.904Z,16.30
2023-05-09T18:36:46.948Z,20.93
2023-05-09T18:39:14.137Z,17.47
2023-05-09T18:41:41.088Z,16.60
2023-05-09T18:44:08.591Z,23.30
2023-05-09T18:46:35.354Z,14.53
2023-05-09T18:49:05.163Z,13.30
2023-05-09T18:51:32.150Z,17.47
2023-05-09T18:53:58.739Z,28.77
2023-05-09T18:56:25.517Z,13.33
2023-05-09T18:58:52.319Z,15.10
2023-05-09T19:01:24.490Z,15.27
2023-05-09T19:03:54.110Z,15.03
2023-05-09T19:06:21.572Z,13.87
2023-05-09T19:08:48.640Z,17.70
2023-05-09T19:11:16.032Z,20.30
2023-05-09T19:13:48.417Z,14.93
2023-05-09T19:16:19.616Z,18.70
2023-05-09T19:18:46.483Z,14.07
2023-05-09T19:21:15.101Z,14.50
2023-05-09T19:23:42.556Z,17.60
2023-05-09T19:26:10.375Z,16.23
2023-05-09T19:28:36.999Z,19.80
2023-05-09T19:31:03.711Z,20.70
2023-05-09T19:33:30.494Z,17.10
2023-05-09T19:35:57.311Z,15.47
2023-05-09T19:38:24.590Z,17.97
2023-05-09T19:40:51.491Z,22.80
2023-05-09T19:43:18.474Z,15.70
2023-05-09T19:45:45.386Z,17.90
2023-05-09T19:48:15.581Z,19.27
2023-05-09T19:50:43.062Z,21.13
2023-05-09T19:53:10.426Z,17.50
2023-05-09T19:55:37.447Z,16.77
2023-05-09T19:58:04.684Z,22.13
2023-05-09T20:00:32.333Z,21.30
2023-05-09T20:02:59.182Z,15.47
2023-05-09T20:05:26.035Z,16.50
2023-05-09T20:07:53.064Z,17.23
2023-05-09T20:10:19.783Z,14.53
2023-05-09T20:12:46.569Z,17.77
2023-05-09T20:15:13.554Z,16.70
2023-05-09T20:17:40.386Z,17.90
2023-05-09T20:20:07.759Z,17.00
2023-05-09T20:22:34.577Z,14.37
2023-05-09T20:25:01.375Z,18.00
2023-05-09T20:27:28.088Z,19.60
2023-05-09T20:29:54.933Z,20.97
2023-05-09T20:32:22.474Z,18.27
2023-05-09T20:34:49.454Z,16.17
2023-05-09T20:37:16.047Z,18.20
2023-05-09T20:39:42.870Z,16.30
2023-05-09T20:42:09.551Z,20.60
2023-05-09T20:44:39.125Z,18.07
2023-05-09T20:47:05.926Z,17.70
2023-05-09T20:49:32.553Z,18.77
2023-05-09T20:51:59.492Z,19.83
2023-05-09T20:54:26.196Z,16.70
2023-05-09T20:56:52.844Z,17.10
2023-05-09T20:59:19.474Z,19.47
2023-05-09T21:01:46.089Z,17.10
2023-05-09T21:04:12.719Z,15.13
2023-05-09T21:06:39.424Z,10.30
2023-05-09T21:09:06.243Z,10.00
2023-05-09T21:11:33.022Z,11.30
2023-05-09T21:13:59.706Z,9.83
2023-05-09T21:16:26.471Z,11.73
2023-05-09T21:18:53.238Z,10.33
2023-05-09T21:21:19.900Z,10.70
2023-05-09T21:23:46.784Z,9.57
2023-05-09T21:26:13.359Z,9.70
2023-05-09T21:28:40.211Z,9.57
2023-05-09T21:33:33.408Z,13.40
2023-05-09T21:36:00.067Z,11.67
2023-05-09T21:38:26.711Z,10.57
2023-05-09T21:40:53.499Z,10.00
2023-05-09T21:43:20.206Z,9.47
2023-05-09T21:45:46.808Z,9.70
2023-05-09T21:48:13.514Z,11.63
2023-05-09T21:50:40.359Z,9.40
2023-05-09T21:53:07.020Z,9.03
2023-05-09T21:55:33.742Z,9.70
2023-05-09T21:58:00.822Z,9.27
2023-05-09T22:00:27.435Z,10.80
2023-05-09T22:02:54.162Z,10.10
2023-05-09T22:05:20.807Z,9.47
2023-05-09T22:07:47.415Z,9.97
2023-05-09T22:10:14.158Z,9.23
2023-05-09T22:12:40.856Z,8.93
2023-05-09T22:15:08.636Z,15.93
2023-05-09T22:17:35.511Z,10.37
2023-05-09T22:20:02.205Z,9.60
2023-05-09T22:22:29.665Z,9.40
2023-05-09T22:24:56.260Z,9.00
2023-05-09T22:27:22.911Z,10.33
2023-05-09T22:29:49.600Z,9.57
2023-05-09T22:32:16.478Z,14.90
2023-05-09T22:34:45.973Z,11.00
2023-05-09T22:37:12.563Z,13.00
2023-05-09T22:39:39.277Z,9.20
2023-05-09T22:42:06.669Z,10.27
2023-05-09T22:44:33.272Z,9.27
2023-05-09T22:46:59.991Z,9.07
2023-05-09T22:49:26.627Z,9.00
2023-05-09T22:51:53.201Z,9.30
2023-05-09T22:54:22.192Z,9.30
2023-05-09T22:56:48.925Z,10.20
2023-05-09T22:59:15.749Z,9.33
2023-05-09T23:01:42.394Z,9.60
2023-05-09T23:04:09.048Z,10.30
2023-05-09T23:06:35.652Z,9.60
2023-05-09T23:09:02.207Z,9.53
2023-05-09T23:11:28.922Z,9.10
2023-05-09T23:13:55.526Z,9.17
2023-05-09T23:16:22.141Z,10.33
2023-05-09T23:18:49.853Z,9.20
2023-05-09T23:21:16.606Z,9.87
2023-05-09T23:23:43.255Z,9.20
2023-05-09T23:26:10.348Z,9.00
2023-05-09T23:28:36.923Z,8.70
2023-05-09T23:31:03.548Z,9.77
2023-05-09T23:33:30.188Z,8.77
2023-05-09T23:35:57.046Z,9.60
2023-05-09T23:38:23.686Z,9.30
2023-05-09T23:40:50.452Z,11.73
2023-05-09T23:43:18.052Z,9.33
2023-05-09T23:45:44.686Z,9.40
2023-05-09T23:48:11.375Z,8.80
2023-05-09T23:50:37.946Z,9.00
2023-05-09T23:53:04.917Z,12.50
2023-05-09T23:55:32.056Z,8.90
2023-05-09T23:57:59.458Z,10.30
